航空気象通報

ウインドサーファーのための航空気象通報による風予報です。

1/6-1/8の航空気象通報

2019年01月06日 22時29分02秒 | お天気
羽田空港
TAF RJTT 061105Z 0612/0718 34012KT 9999 FEW030
BECMG 0715/0718 20004KT
日本時間6日21時-7日24時:340度から12ノットの風
8日00-03時:風が変化
03時:200度から4ノットの風


静岡空港
TAF RJNS 061106Z 0612/0718 27012KT 9999 FEW020
日本時間6日21時-8日03時:270度から12ノットの風


福岡空港
TAF RJFF 061105Z 0612/0718 15006KT 9999 FEW030
BECMG 0703/0706 31008KT
BECMG 0709/0712 15006KT
日本時間6日21時-7日12時:150度から6ノットの風
12-15時:風が変化
15-18時:310度から8ノットの風
18-21時:風が変化
21時-8日03時:150度から6ノットの風


那覇空港
TAF ROAH 061105Z 0612/0718 03008KT 9999 SCT030 BKN040
日本時間6日21時-8日03時:030度から8ノットの風


石垣空港
TAF ROIG 061107Z 0612/0718 04013KT 9999 FEW015 BKN035
日本時間6日21時-8日03時:040度から13ノットの風


マウイのカフルイ空港
PHOG 061127Z 0612/0712 14005KT P6SM FEW050
FM062100 35009KT P6SM FEW030 SCT050
FM070400 VRB05KT P6SM FEW050 AMD LTD TO VIS AND WIND TIL 061600
ハワイ時間6日02-11時:140度から5ノットの風
11-18時:350度から9ノットの風
18時-7日02時:風向不定5ノットの風


サイパン空港
PGSN 061131Z 0612/0712 05011KT P6SM FEW030 SCT050
FM062200 05017KT P6SM SCT025 SCT050
マリアナ時間6日22時-7日08時:050度から11ノットの風
08-22時:050度から17ノットの風
ジャンル:
お天気
コメント   この記事についてブログを書く
« 1/5-1/7の航空気象通報 | トップ | 1/7-1/9の航空気象通報 »
最近の画像もっと見る

コメントを投稿

ブログ作成者から承認されるまでコメントは反映されません。

お天気」カテゴリの最新記事